sensor_id;sensor_type;location;lat;lon;timestamp;P1;durP1;ratioP1;P2;durP2;ratioP2
22652;SDS011;11493;43.344;26.226;2023-07-30T00:00:50;3.10;;;1.80;;
22652;SDS011;11493;43.344;26.226;2023-07-30T00:03:17;2.58;;;1.83;;
22652;SDS011;11493;43.344;26.226;2023-07-30T00:05:51;2.08;;;1.50;;
22652;SDS011;11493;43.344;26.226;2023-07-30T00:08:19;5.53;;;2.35;;
22652;SDS011;11493;43.344;26.226;2023-07-30T00:10:46;2.30;;;1.85;;
22652;SDS011;11493;43.344;26.226;2023-07-30T00:13:13;2.65;;;1.95;;
22652;SDS011;11493;43.344;26.226;2023-07-30T00:15:40;2.13;;;1.92;;
22652;SDS011;11493;43.344;26.226;2023-07-30T00:18:07;8.52;;;2.10;;
22652;SDS011;11493;43.344;26.226;2023-07-30T00:20:34;1.95;;;1.75;;
22652;SDS011;11493;43.344;26.226;2023-07-30T00:23:02;1.95;;;1.80;;
22652;SDS011;11493;43.344;26.226;2023-07-30T00:25:29;3.00;;;1.90;;
22652;SDS011;11493;43.344;26.226;2023-07-30T00:27:56;2.92;;;2.00;;
22652;SDS011;11493;43.344;26.226;2023-07-30T00:30:24;2.90;;;2.17;;
22652;SDS011;11493;43.344;26.226;2023-07-30T00:32:51;2.22;;;1.92;;
22652;SDS011;11493;43.344;26.226;2023-07-30T00:35:18;2.03;;;1.75;;
22652;SDS011;11493;43.344;26.226;2023-07-30T00:37:45;2.88;;;1.67;;
22652;SDS011;11493;43.344;26.226;2023-07-30T00:40:12;4.43;;;2.08;;
22652;SDS011;11493;43.344;26.226;2023-07-30T00:42:39;2.90;;;1.85;;
22652;SDS011;11493;43.344;26.226;2023-07-30T00:45:07;2.42;;;1.55;;
22652;SDS011;11493;43.344;26.226;2023-07-30T00:47:34;2.88;;;2.00;;
22652;SDS011;11493;43.344;26.226;2023-07-30T00:50:02;3.53;;;2.25;;
22652;SDS011;11493;43.344;26.226;2023-07-30T00:52:29;2.45;;;2.15;;
22652;SDS011;11493;43.344;26.226;2023-07-30T00:54:57;2.75;;;2.05;;
22652;SDS011;11493;43.344;26.226;2023-07-30T00:57:25;2.33;;;2.13;;
22652;SDS011;11493;43.344;26.226;2023-07-30T00:59:53;2.78;;;2.42;;
22652;SDS011;11493;43.344;26.226;2023-07-30T01:02:21;2.65;;;1.90;;
22652;SDS011;11493;43.344;26.226;2023-07-30T01:04:48;2.20;;;2.00;;
22652;SDS011;11493;43.344;26.226;2023-07-30T01:07:16;3.95;;;1.90;;
22652;SDS011;11493;43.344;26.226;2023-07-30T01:09:43;2.00;;;1.80;;
22652;SDS011;11493;43.344;26.226;2023-07-30T01:12:10;2.10;;;1.80;;
22652;SDS011;11493;43.344;26.226;2023-07-30T01:14:37;2.40;;;1.83;;
22652;SDS011;11493;43.344;26.226;2023-07-30T01:17:06;5.95;;;2.10;;
22652;SDS011;11493;43.344;26.226;2023-07-30T01:19:33;3.90;;;1.95;;
22652;SDS011;11493;43.344;26.226;2023-07-30T01:22:00;8.07;;;1.90;;
22652;SDS011;11493;43.344;26.226;2023-07-30T01:24:27;3.08;;;1.65;;
22652;SDS011;11493;43.344;26.226;2023-07-30T01:27:07;2.90;;;1.73;;
22652;SDS011;11493;43.344;26.226;2023-07-30T01:29:40;2.80;;;1.92;;
22652;SDS011;11493;43.344;26.226;2023-07-30T01:32:11;2.30;;;1.90;;
22652;SDS011;11493;43.344;26.226;2023-07-30T01:34:39;3.50;;;2.30;;
22652;SDS011;11493;43.344;26.226;2023-07-30T01:37:09;3.97;;;1.98;;
22652;SDS011;11493;43.344;26.226;2023-07-30T01:39:39;3.08;;;1.83;;
22652;SDS011;11493;43.344;26.226;2023-07-30T01:42:11;2.38;;;2.17;;
22652;SDS011;11493;43.344;26.226;2023-07-30T01:44:39;2.40;;;2.08;;
22652;SDS011;11493;43.344;26.226;2023-07-30T01:47:06;3.50;;;2.00;;
22652;SDS011;11493;43.344;26.226;2023-07-30T01:49:33;3.33;;;2.25;;
22652;SDS011;11493;43.344;26.226;2023-07-30T01:52:00;2.53;;;2.00;;
22652;SDS011;11493;43.344;26.226;2023-07-30T01:54:27;3.25;;;1.98;;
22652;SDS011;11493;43.344;26.226;2023-07-30T01:56:54;2.45;;;2.25;;
22652;SDS011;11493;43.344;26.226;2023-07-30T01:59:23;2.75;;;2.20;;
22652;SDS011;11493;43.344;26.226;2023-07-30T02:01:50;7.15;;;2.60;;
22652;SDS011;11493;43.344;26.226;2023-07-30T02:04:17;2.70;;;2.40;;
22652;SDS011;11493;43.344;26.226;2023-07-30T02:06:44;2.88;;;2.10;;
22652;SDS011;11493;43.344;26.226;2023-07-30T02:09:11;3.47;;;2.00;;
22652;SDS011;11493;43.344;26.226;2023-07-30T02:11:39;4.97;;;2.15;;
22652;SDS011;11493;43.344;26.226;2023-07-30T02:14:06;3.03;;;2.17;;
22652;SDS011;11493;43.344;26.226;2023-07-30T02:16:33;4.05;;;2.30;;
22652;SDS011;11493;43.344;26.226;2023-07-30T02:19:00;3.55;;;2.13;;
22652;SDS011;11493;43.344;26.226;2023-07-30T02:21:27;2.53;;;2.33;;
22652;SDS011;11493;43.344;26.226;2023-07-30T02:23:56;5.95;;;2.25;;
22652;SDS011;11493;43.344;26.226;2023-07-30T02:26:23;7.63;;;3.15;;
22652;SDS011;11493;43.344;26.226;2023-07-30T02:28:50;11.43;;;2.40;;
22652;SDS011;11493;43.344;26.226;2023-07-30T02:31:17;4.18;;;2.30;;
22652;SDS011;11493;43.344;26.226;2023-07-30T02:33:44;2.47;;;2.28;;
22652;SDS011;11493;43.344;26.226;2023-07-30T02:36:11;5.15;;;2.28;;
22652;SDS011;11493;43.344;26.226;2023-07-30T02:38:38;3.92;;;2.25;;
22652;SDS011;11493;43.344;26.226;2023-07-30T02:41:05;2.83;;;2.38;;
22652;SDS011;11493;43.344;26.226;2023-07-30T02:43:32;3.50;;;2.58;;
22652;SDS011;11493;43.344;26.226;2023-07-30T02:45:59;3.70;;;2.00;;
22652;SDS011;11493;43.344;26.226;2023-07-30T02:48:26;3.35;;;2.53;;
22652;SDS011;11493;43.344;26.226;2023-07-30T02:50:53;4.90;;;2.28;;
22652;SDS011;11493;43.344;26.226;2023-07-30T02:53:20;2.40;;;2.10;;
22652;SDS011;11493;43.344;26.226;2023-07-30T02:55:47;2.83;;;2.22;;
22652;SDS011;11493;43.344;26.226;2023-07-30T02:58:14;2.28;;;2.08;;
22652;SDS011;11493;43.344;26.226;2023-07-30T03:00:41;2.53;;;2.30;;
22652;SDS011;11493;43.344;26.226;2023-07-30T03:03:09;3.40;;;2.72;;
22652;SDS011;11493;43.344;26.226;2023-07-30T03:05:36;2.97;;;2.30;;
22652;SDS011;11493;43.344;26.226;2023-07-30T03:08:03;2.75;;;2.22;;
22652;SDS011;11493;43.344;26.226;2023-07-30T03:10:30;6.95;;;2.60;;
22652;SDS011;11493;43.344;26.226;2023-07-30T03:12:56;3.28;;;2.53;;
22652;SDS011;11493;43.344;26.226;2023-07-30T03:15:23;5.03;;;2.20;;
22652;SDS011;11493;43.344;26.226;2023-07-30T03:17:50;4.45;;;2.40;;
22652;SDS011;11493;43.344;26.226;2023-07-30T03:20:17;4.03;;;2.53;;
22652;SDS011;11493;43.344;26.226;2023-07-30T03:22:45;3.63;;;2.63;;
22652;SDS011;11493;43.344;26.226;2023-07-30T03:25:12;4.45;;;2.50;;
22652;SDS011;11493;43.344;26.226;2023-07-30T03:27:39;2.83;;;2.42;;
22652;SDS011;11493;43.344;26.226;2023-07-30T03:30:06;6.75;;;2.40;;
22652;SDS011;11493;43.344;26.226;2023-07-30T03:32:34;11.70;;;2.63;;
22652;SDS011;11493;43.344;26.226;2023-07-30T03:35:01;4.43;;;2.28;;
22652;SDS011;11493;43.344;26.226;2023-07-30T03:37:27;3.45;;;2.65;;
22652;SDS011;11493;43.344;26.226;2023-07-30T03:39:54;3.65;;;2.55;;
22652;SDS011;11493;43.344;26.226;2023-07-30T03:42:21;7.85;;;2.55;;
22652;SDS011;11493;43.344;26.226;2023-07-30T03:44:48;5.35;;;2.47;;
22652;SDS011;11493;43.344;26.226;2023-07-30T03:47:16;7.55;;;2.58;;
22652;SDS011;11493;43.344;26.226;2023-07-30T03:49:42;6.03;;;2.80;;
22652;SDS011;11493;43.344;26.226;2023-07-30T03:52:09;2.58;;;2.17;;
22652;SDS011;11493;43.344;26.226;2023-07-30T03:54:56;2.90;;;2.70;;
22652;SDS011;11493;43.344;26.226;2023-07-30T03:57:23;8.45;;;2.47;;
22652;SDS011;11493;43.344;26.226;2023-07-30T03:59:50;2.95;;;2.58;;
22652;SDS011;11493;43.344;26.226;2023-07-30T04:02:17;3.55;;;2.72;;
22652;SDS011;11493;43.344;26.226;2023-07-30T04:04:44;5.57;;;2.50;;
22652;SDS011;11493;43.344;26.226;2023-07-30T04:07:12;6.45;;;2.35;;
22652;SDS011;11493;43.344;26.226;2023-07-30T04:09:41;4.93;;;2.40;;
22652;SDS011;11493;43.344;26.226;2023-07-30T04:12:08;3.08;;;2.40;;
22652;SDS011;11493;43.344;26.226;2023-07-30T04:14:36;2.70;;;2.25;;
22652;SDS011;11493;43.344;26.226;2023-07-30T04:17:03;4.60;;;2.75;;
22652;SDS011;11493;43.344;26.226;2023-07-30T04:19:30;7.43;;;2.83;;
22652;SDS011;11493;43.344;26.226;2023-07-30T04:21:57;4.63;;;2.05;;
22652;SDS011;11493;43.344;26.226;2023-07-30T04:24:24;5.13;;;3.05;;
22652;SDS011;11493;43.344;26.226;2023-07-30T04:26:52;3.22;;;2.65;;
22652;SDS011;11493;43.344;26.226;2023-07-30T04:29:19;8.07;;;2.83;;
22652;SDS011;11493;43.344;26.226;2023-07-30T04:31:46;6.63;;;2.50;;
22652;SDS011;11493;43.344;26.226;2023-07-30T04:34:13;6.30;;;2.97;;
22652;SDS011;11493;43.344;26.226;2023-07-30T04:36:41;3.40;;;2.00;;
22652;SDS011;11493;43.344;26.226;2023-07-30T04:39:09;3.17;;;2.72;;
22652;SDS011;11493;43.344;26.226;2023-07-30T04:41:36;3.30;;;2.53;;
22652;SDS011;11493;43.344;26.226;2023-07-30T04:44:03;3.45;;;3.10;;
22652;SDS011;11493;43.344;26.226;2023-07-30T04:46:30;6.93;;;2.78;;
22652;SDS011;11493;43.344;26.226;2023-07-30T04:49:02;5.07;;;2.72;;
22652;SDS011;11493;43.344;26.226;2023-07-30T04:51:31;4.00;;;3.33;;
22652;SDS011;11493;43.344;26.226;2023-07-30T04:53:58;3.53;;;3.10;;
22652;SDS011;11493;43.344;26.226;2023-07-30T04:56:25;6.55;;;2.55;;
22652;SDS011;11493;43.344;26.226;2023-07-30T04:58:53;5.82;;;2.80;;
22652;SDS011;11493;43.344;26.226;2023-07-30T05:01:21;5.68;;;3.10;;
22652;SDS011;11493;43.344;26.226;2023-07-30T05:03:48;3.25;;;2.58;;
22652;SDS011;11493;43.344;26.226;2023-07-30T05:06:15;4.72;;;3.17;;
22652;SDS011;11493;43.344;26.226;2023-07-30T05:08:42;4.63;;;2.80;;
22652;SDS011;11493;43.344;26.226;2023-07-30T05:11:09;5.88;;;2.88;;
22652;SDS011;11493;43.344;26.226;2023-07-30T05:13:37;7.53;;;2.40;;
22652;SDS011;11493;43.344;26.226;2023-07-30T05:16:04;5.75;;;3.47;;
22652;SDS011;11493;43.344;26.226;2023-07-30T05:18:31;2.53;;;2.08;;
22652;SDS011;11493;43.344;26.226;2023-07-30T05:20:58;5.25;;;2.50;;
22652;SDS011;11493;43.344;26.226;2023-07-30T05:23:25;3.13;;;2.30;;
22652;SDS011;11493;43.344;26.226;2023-07-30T05:25:52;2.42;;;2.00;;
22652;SDS011;11493;43.344;26.226;2023-07-30T05:28:19;8.27;;;1.77;;
22652;SDS011;11493;43.344;26.226;2023-07-30T05:30:46;5.75;;;1.83;;
22652;SDS011;11493;43.344;26.226;2023-07-30T05:33:13;11.27;;;2.08;;
22652;SDS011;11493;43.344;26.226;2023-07-30T05:35:40;8.07;;;1.77;;
22652;SDS011;11493;43.344;26.226;2023-07-30T05:38:07;3.22;;;1.80;;
22652;SDS011;11493;43.344;26.226;2023-07-30T05:40:35;5.78;;;1.65;;
22652;SDS011;11493;43.344;26.226;2023-07-30T05:43:05;2.20;;;1.92;;
22652;SDS011;11493;43.344;26.226;2023-07-30T05:45:33;5.53;;;2.42;;
22652;SDS011;11493;43.344;26.226;2023-07-30T05:48:01;3.20;;;1.90;;
22652;SDS011;11493;43.344;26.226;2023-07-30T05:50:28;5.13;;;1.80;;
22652;SDS011;11493;43.344;26.226;2023-07-30T05:52:55;7.22;;;2.15;;
22652;SDS011;11493;43.344;26.226;2023-07-30T05:55:22;4.32;;;1.85;;
22652;SDS011;11493;43.344;26.226;2023-07-30T05:57:49;2.92;;;2.10;;
22652;SDS011;11493;43.344;26.226;2023-07-30T06:00:16;4.82;;;1.92;;
22652;SDS011;11493;43.344;26.226;2023-07-30T06:02:43;5.05;;;2.35;;
22652;SDS011;11493;43.344;26.226;2023-07-30T06:05:10;3.22;;;2.45;;
22652;SDS011;11493;43.344;26.226;2023-07-30T06:07:37;3.67;;;1.92;;
22652;SDS011;11493;43.344;26.226;2023-07-30T06:10:04;6.13;;;2.45;;
22652;SDS011;11493;43.344;26.226;2023-07-30T06:12:31;5.55;;;2.30;;
22652;SDS011;11493;43.344;26.226;2023-07-30T06:14:58;4.55;;;1.80;;
22652;SDS011;11493;43.344;26.226;2023-07-30T06:17:25;3.92;;;2.50;;
22652;SDS011;11493;43.344;26.226;2023-07-30T06:19:52;3.13;;;2.25;;
22652;SDS011;11493;43.344;26.226;2023-07-30T06:22:19;7.13;;;2.80;;
22652;SDS011;11493;43.344;26.226;2023-07-30T06:24:46;5.70;;;2.35;;
22652;SDS011;11493;43.344;26.226;2023-07-30T06:27:13;10.20;;;2.33;;
22652;SDS011;11493;43.344;26.226;2023-07-30T06:29:40;9.63;;;2.60;;
22652;SDS011;11493;43.344;26.226;2023-07-30T06:32:07;5.53;;;2.13;;
22652;SDS011;11493;43.344;26.226;2023-07-30T06:34:35;6.20;;;2.38;;
22652;SDS011;11493;43.344;26.226;2023-07-30T06:37:01;4.00;;;2.13;;
22652;SDS011;11493;43.344;26.226;2023-07-30T06:39:28;4.25;;;2.30;;
22652;SDS011;11493;43.344;26.226;2023-07-30T06:41:55;2.72;;;2.00;;
22652;SDS011;11493;43.344;26.226;2023-07-30T06:44:23;5.00;;;2.10;;
22652;SDS011;11493;43.344;26.226;2023-07-30T06:46:52;3.53;;;2.22;;
22652;SDS011;11493;43.344;26.226;2023-07-30T06:49:19;5.82;;;2.13;;
22652;SDS011;11493;43.344;26.226;2023-07-30T06:51:46;6.85;;;1.83;;
22652;SDS011;11493;43.344;26.226;2023-07-30T06:54:13;4.57;;;1.80;;
22652;SDS011;11493;43.344;26.226;2023-07-30T06:56:40;2.00;;;1.70;;
22652;SDS011;11493;43.344;26.226;2023-07-30T06:59:07;4.18;;;1.80;;
22652;SDS011;11493;43.344;26.226;2023-07-30T07:01:34;2.97;;;1.73;;
22652;SDS011;11493;43.344;26.226;2023-07-30T07:04:02;6.35;;;2.05;;
22652;SDS011;11493;43.344;26.226;2023-07-30T07:06:29;6.30;;;2.03;;
22652;SDS011;11493;43.344;26.226;2023-07-30T07:08:56;3.78;;;1.75;;
22652;SDS011;11493;43.344;26.226;2023-07-30T07:11:23;4.00;;;1.90;;
22652;SDS011;11493;43.344;26.226;2023-07-30T07:13:50;4.20;;;2.05;;
22652;SDS011;11493;43.344;26.226;2023-07-30T07:16:18;4.32;;;2.00;;
22652;SDS011;11493;43.344;26.226;2023-07-30T07:18:52;3.88;;;2.08;;
22652;SDS011;11493;43.344;26.226;2023-07-30T07:21:22;2.20;;;2.00;;
22652;SDS011;11493;43.344;26.226;2023-07-30T07:23:49;2.20;;;2.00;;
22652;SDS011;11493;43.344;26.226;2023-07-30T07:26:16;7.35;;;2.60;;
22652;SDS011;11493;43.344;26.226;2023-07-30T07:28:43;2.45;;;1.70;;
22652;SDS011;11493;43.344;26.226;2023-07-30T07:31:10;2.95;;;2.10;;
22652;SDS011;11493;43.344;26.226;2023-07-30T07:33:37;4.18;;;1.63;;
22652;SDS011;11493;43.344;26.226;2023-07-30T07:36:05;2.70;;;1.92;;
22652;SDS011;11493;43.344;26.226;2023-07-30T07:38:33;4.80;;;1.77;;
22652;SDS011;11493;43.344;26.226;2023-07-30T07:41:01;2.10;;;1.58;;
22652;SDS011;11493;43.344;26.226;2023-07-30T07:43:29;1.73;;;1.52;;
22652;SDS011;11493;43.344;26.226;2023-07-30T07:45:56;3.45;;;1.70;;
22652;SDS011;11493;43.344;26.226;2023-07-30T07:48:23;2.55;;;1.77;;
22652;SDS011;11493;43.344;26.226;2023-07-30T07:50:50;4.07;;;1.40;;
22652;SDS011;11493;43.344;26.226;2023-07-30T07:53:17;5.55;;;1.80;;
22652;SDS011;11493;43.344;26.226;2023-07-30T07:55:47;3.85;;;1.50;;
22652;SDS011;11493;43.344;26.226;2023-07-30T07:58:14;4.90;;;1.80;;
22652;SDS011;11493;43.344;26.226;2023-07-30T08:00:41;3.53;;;1.58;;
22652;SDS011;11493;43.344;26.226;2023-07-30T08:03:08;4.60;;;1.55;;
22652;SDS011;11493;43.344;26.226;2023-07-30T08:05:36;2.15;;;1.52;;
22652;SDS011;11493;43.344;26.226;2023-07-30T08:08:03;5.30;;;1.40;;
22652;SDS011;11493;43.344;26.226;2023-07-30T08:10:30;2.95;;;1.50;;
22652;SDS011;11493;43.344;26.226;2023-07-30T08:12:58;3.97;;;1.60;;
22652;SDS011;11493;43.344;26.226;2023-07-30T08:15:25;2.17;;;1.40;;
22652;SDS011;11493;43.344;26.226;2023-07-30T08:18:05;7.60;;;1.17;;
22652;SDS011;11493;43.344;26.226;2023-07-30T08:20:33;6.82;;;1.55;;
22652;SDS011;11493;43.344;26.226;2023-07-30T08:23:00;1.35;;;1.10;;
22652;SDS011;11493;43.344;26.226;2023-07-30T08:25:27;2.55;;;1.35;;
22652;SDS011;11493;43.344;26.226;2023-07-30T08:27:54;2.05;;;1.20;;
22652;SDS011;11493;43.344;26.226;2023-07-30T08:30:21;2.78;;;1.90;;
22652;SDS011;11493;43.344;26.226;2023-07-30T08:32:58;2.85;;;1.83;;
22652;SDS011;11493;43.344;26.226;2023-07-30T08:35:36;2.00;;;1.30;;
22652;SDS011;11493;43.344;26.226;2023-07-30T08:38:28;2.13;;;1.48;;
22652;SDS011;11493;43.344;26.226;2023-07-30T08:40:58;7.43;;;1.40;;
22652;SDS011;11493;43.344;26.226;2023-07-30T08:43:28;5.20;;;2.05;;
22652;SDS011;11493;43.344;26.226;2023-07-30T08:45:57;7.95;;;1.85;;
22652;SDS011;11493;43.344;26.226;2023-07-30T08:48:24;3.22;;;1.40;;
22652;SDS011;11493;43.344;26.226;2023-07-30T08:50:56;6.70;;;1.40;;
22652;SDS011;11493;43.344;26.226;2023-07-30T08:53:25;11.85;;;1.90;;
22652;SDS011;11493;43.344;26.226;2023-07-30T08:55:53;3.95;;;1.50;;
22652;SDS011;11493;43.344;26.226;2023-07-30T08:58:23;4.50;;;1.55;;
22652;SDS011;11493;43.344;26.226;2023-07-30T09:00:55;5.72;;;1.52;;
22652;SDS011;11493;43.344;26.226;2023-07-30T09:03:24;2.72;;;1.50;;
22652;SDS011;11493;43.344;26.226;2023-07-30T09:05:58;2.80;;;1.30;;
22652;SDS011;11493;43.344;26.226;2023-07-30T09:08:26;4.35;;;1.40;;
22652;SDS011;11493;43.344;26.226;2023-07-30T09:10:54;2.42;;;1.60;;
22652;SDS011;11493;43.344;26.226;2023-07-30T09:13:21;6.18;;;1.60;;
22652;SDS011;11493;43.344;26.226;2023-07-30T09:18:19;6.20;;;1.73;;
22652;SDS011;11493;43.344;26.226;2023-07-30T09:20:46;6.78;;;1.38;;
22652;SDS011;11493;43.344;26.226;2023-07-30T09:23:16;7.43;;;1.50;;
22652;SDS011;11493;43.344;26.226;2023-07-30T09:25:44;2.83;;;1.77;;
22652;SDS011;11493;43.344;26.226;2023-07-30T09:28:15;1.50;;;1.40;;
22652;SDS011;11493;43.344;26.226;2023-07-30T09:30:45;1.30;;;1.10;;
22652;SDS011;11493;43.344;26.226;2023-07-30T09:33:18;3.22;;;1.48;;
22652;SDS011;11493;43.344;26.226;2023-07-30T09:35:46;3.17;;;1.48;;
22652;SDS011;11493;43.344;26.226;2023-07-30T09:38:13;2.30;;;1.50;;
22652;SDS011;11493;43.344;26.226;2023-07-30T09:40:41;1.75;;;1.35;;
22652;SDS011;11493;43.344;26.226;2023-07-30T09:43:09;3.90;;;1.13;;
22652;SDS011;11493;43.344;26.226;2023-07-30T09:45:37;4.15;;;1.48;;
22652;SDS011;11493;43.344;26.226;2023-07-30T09:48:05;4.55;;;1.45;;
22652;SDS011;11493;43.344;26.226;2023-07-30T09:50:33;1.60;;;1.50;;
22652;SDS011;11493;43.344;26.226;2023-07-30T09:53:01;1.50;;;1.30;;
22652;SDS011;11493;43.344;26.226;2023-07-30T09:55:30;3.00;;;1.40;;
22652;SDS011;11493;43.344;26.226;2023-07-30T09:57:57;4.63;;;1.45;;
22652;SDS011;11493;43.344;26.226;2023-07-30T10:00:25;6.35;;;1.30;;
22652;SDS011;11493;43.344;26.226;2023-07-30T10:02:55;4.20;;;1.40;;
22652;SDS011;11493;43.344;26.226;2023-07-30T10:05:28;2.22;;;1.38;;
22652;SDS011;11493;43.344;26.226;2023-07-30T10:08:00;2.75;;;1.40;;
22652;SDS011;11493;43.344;26.226;2023-07-30T10:10:32;2.35;;;1.60;;
22652;SDS011;11493;43.344;26.226;2023-07-30T10:13:00;2.50;;;1.52;;
22652;SDS011;11493;43.344;26.226;2023-07-30T10:15:37;4.40;;;1.60;;
22652;SDS011;11493;43.344;26.226;2023-07-30T10:18:04;3.75;;;1.20;;
22652;SDS011;11493;43.344;26.226;2023-07-30T10:20:32;1.92;;;1.30;;
22652;SDS011;11493;43.344;26.226;2023-07-30T10:23:00;2.55;;;1.60;;
22652;SDS011;11493;43.344;26.226;2023-07-30T10:25:47;4.97;;;2.08;;
22652;SDS011;11493;43.344;26.226;2023-07-30T10:31:06;3.60;;;1.33;;
22652;SDS011;11493;43.344;26.226;2023-07-30T10:33:44;1.75;;;1.20;;
22652;SDS011;11493;43.344;26.226;2023-07-30T10:36:33;1.70;;;1.45;;
22652;SDS011;11493;43.344;26.226;2023-07-30T10:39:16;2.72;;;1.30;;
22652;SDS011;11493;43.344;26.226;2023-07-30T10:41:49;2.72;;;1.33;;
22652;SDS011;11493;43.344;26.226;2023-07-30T10:44:30;1.95;;;1.35;;
22652;SDS011;11493;43.344;26.226;2023-07-30T10:47:20;1.92;;;1.10;;
22652;SDS011;11493;43.344;26.226;2023-07-30T10:50:09;2.42;;;1.25;;
22652;SDS011;11493;43.344;26.226;2023-07-30T10:52:38;3.38;;;1.92;;
22652;SDS011;11493;43.344;26.226;2023-07-30T10:55:05;1.58;;;1.48;;
22652;SDS011;11493;43.344;26.226;2023-07-30T10:57:34;1.85;;;1.38;;
22652;SDS011;11493;43.344;26.226;2023-07-30T11:00:08;1.73;;;1.20;;
22652;SDS011;11493;43.344;26.226;2023-07-30T11:02:37;3.17;;;1.50;;
22652;SDS011;11493;43.344;26.226;2023-07-30T11:05:13;1.40;;;1.08;;
22652;SDS011;11493;43.344;26.226;2023-07-30T11:07:48;2.33;;;1.40;;
22652;SDS011;11493;43.344;26.226;2023-07-30T11:10:17;2.22;;;1.25;;
22652;SDS011;11493;43.344;26.226;2023-07-30T11:12:44;2.42;;;1.40;;
22652;SDS011;11493;43.344;26.226;2023-07-30T11:15:11;1.95;;;1.35;;
22652;SDS011;11493;43.344;26.226;2023-07-30T11:20:25;2.55;;;1.30;;
22652;SDS011;11493;43.344;26.226;2023-07-30T11:22:55;1.58;;;1.40;;
22652;SDS011;11493;43.344;26.226;2023-07-30T11:25:22;2.35;;;1.40;;
22652;SDS011;11493;43.344;26.226;2023-07-30T11:27:49;2.33;;;1.30;;
22652;SDS011;11493;43.344;26.226;2023-07-30T11:30:18;2.35;;;1.30;;
22652;SDS011;11493;43.344;26.226;2023-07-30T11:32:46;1.80;;;1.40;;
22652;SDS011;11493;43.344;26.226;2023-07-30T11:35:15;5.82;;;1.70;;
22652;SDS011;11493;43.344;26.226;2023-07-30T11:37:43;1.83;;;1.40;;
22652;SDS011;11493;43.344;26.226;2023-07-30T11:40:15;1.38;;;1.25;;
22652;SDS011;11493;43.344;26.226;2023-07-30T11:42:42;5.68;;;1.30;;
22652;SDS011;11493;43.344;26.226;2023-07-30T11:45:19;2.00;;;1.80;;
22652;SDS011;11493;43.344;26.226;2023-07-30T11:47:48;1.90;;;1.20;;
22652;SDS011;11493;43.344;26.226;2023-07-30T11:50:16;1.60;;;1.30;;
22652;SDS011;11493;43.344;26.226;2023-07-30T11:52:56;1.52;;;1.42;;
22652;SDS011;11493;43.344;26.226;2023-07-30T11:55:23;1.92;;;1.77;;
22652;SDS011;11493;43.344;26.226;2023-07-30T11:58:05;2.47;;;1.42;;
22652;SDS011;11493;43.344;26.226;2023-07-30T12:00:43;3.15;;;1.38;;
22652;SDS011;11493;43.344;26.226;2023-07-30T12:03:12;7.17;;;3.23;;
22652;SDS011;11493;43.344;26.226;2023-07-30T12:05:41;1.92;;;1.73;;
22652;SDS011;11493;43.344;26.226;2023-07-30T12:08:12;2.40;;;1.77;;
22652;SDS011;11493;43.344;26.226;2023-07-30T12:10:51;3.65;;;1.33;;
22652;SDS011;11493;43.344;26.226;2023-07-30T12:13:24;7.85;;;1.63;;
22652;SDS011;11493;43.344;26.226;2023-07-30T12:15:54;2.25;;;1.40;;
22652;SDS011;11493;43.344;26.226;2023-07-30T12:18:23;2.17;;;1.40;;
22652;SDS011;11493;43.344;26.226;2023-07-30T12:20:52;1.50;;;1.40;;
22652;SDS011;11493;43.344;26.226;2023-07-30T12:23:20;3.28;;;1.77;;
22652;SDS011;11493;43.344;26.226;2023-07-30T12:25:47;2.45;;;1.30;;
22652;SDS011;11493;43.344;26.226;2023-07-30T12:28:14;1.70;;;1.60;;
22652;SDS011;11493;43.344;26.226;2023-07-30T12:30:41;2.95;;;1.63;;
22652;SDS011;11493;43.344;26.226;2023-07-30T12:33:08;3.08;;;1.45;;
22652;SDS011;11493;43.344;26.226;2023-07-30T12:35:36;3.35;;;1.50;;
22652;SDS011;11493;43.344;26.226;2023-07-30T12:38:03;2.00;;;1.70;;
22652;SDS011;11493;43.344;26.226;2023-07-30T12:40:31;5.63;;;1.77;;
22652;SDS011;11493;43.344;26.226;2023-07-30T12:43:01;2.10;;;1.90;;
22652;SDS011;11493;43.344;26.226;2023-07-30T12:45:30;1.83;;;1.40;;
22652;SDS011;11493;43.344;26.226;2023-07-30T12:48:01;1.85;;;1.60;;
22652;SDS011;11493;43.344;26.226;2023-07-30T12:50:29;2.05;;;1.70;;
22652;SDS011;11493;43.344;26.226;2023-07-30T12:52:56;2.03;;;1.83;;
22652;SDS011;11493;43.344;26.226;2023-07-30T12:55:23;1.70;;;1.60;;
22652;SDS011;11493;43.344;26.226;2023-07-30T12:57:50;1.65;;;1.25;;
22652;SDS011;11493;43.344;26.226;2023-07-30T13:00:18;2.25;;;1.67;;
22652;SDS011;11493;43.344;26.226;2023-07-30T13:02:45;1.90;;;1.40;;
22652;SDS011;11493;43.344;26.226;2023-07-30T13:05:13;4.43;;;1.50;;
22652;SDS011;11493;43.344;26.226;2023-07-30T13:07:44;3.53;;;1.50;;
22652;SDS011;11493;43.344;26.226;2023-07-30T13:10:11;3.78;;;1.55;;
22652;SDS011;11493;43.344;26.226;2023-07-30T13:12:38;1.80;;;1.70;;
22652;SDS011;11493;43.344;26.226;2023-07-30T13:15:06;1.58;;;1.48;;
22652;SDS011;11493;43.344;26.226;2023-07-30T13:17:37;1.45;;;1.30;;
22652;SDS011;11493;43.344;26.226;2023-07-30T13:20:23;1.55;;;1.33;;
22652;SDS011;11493;43.344;26.226;2023-07-30T13:22:51;2.00;;;1.60;;
22652;SDS011;11493;43.344;26.226;2023-07-30T13:25:24;3.63;;;1.30;;
22652;SDS011;11493;43.344;26.226;2023-07-30T13:27:52;3.30;;;1.50;;
22652;SDS011;11493;43.344;26.226;2023-07-30T13:30:20;2.30;;;1.40;;
22652;SDS011;11493;43.344;26.226;2023-07-30T13:32:47;2.40;;;1.40;;
22652;SDS011;11493;43.344;26.226;2023-07-30T13:35:15;1.77;;;1.13;;
22652;SDS011;11493;43.344;26.226;2023-07-30T13:37:53;2.92;;;1.40;;
22652;SDS011;11493;43.344;26.226;2023-07-30T13:40:20;1.95;;;1.40;;
22652;SDS011;11493;43.344;26.226;2023-07-30T13:42:47;4.60;;;1.40;;
22652;SDS011;11493;43.344;26.226;2023-07-30T13:45:14;1.60;;;1.50;;
22652;SDS011;11493;43.344;26.226;2023-07-30T13:47:41;1.63;;;1.50;;
22652;SDS011;11493;43.344;26.226;2023-07-30T13:50:09;1.92;;;1.40;;
22652;SDS011;11493;43.344;26.226;2023-07-30T13:52:36;2.28;;;1.40;;
22652;SDS011;11493;43.344;26.226;2023-07-30T13:55:03;1.42;;;1.30;;
22652;SDS011;11493;43.344;26.226;2023-07-30T13:57:30;3.85;;;1.60;;
22652;SDS011;11493;43.344;26.226;2023-07-30T13:59:59;2.35;;;1.30;;
22652;SDS011;11493;43.344;26.226;2023-07-30T14:02:29;1.57;;;1.20;;
22652;SDS011;11493;43.344;26.226;2023-07-30T14:04:57;1.42;;;1.20;;
22652;SDS011;11493;43.344;26.226;2023-07-30T14:07:24;1.50;;;1.33;;
22652;SDS011;11493;43.344;26.226;2023-07-30T14:09:51;1.60;;;1.20;;
22652;SDS011;11493;43.344;26.226;2023-07-30T14:12:18;3.53;;;1.10;;
22652;SDS011;11493;43.344;26.226;2023-07-30T14:14:45;1.50;;;1.30;;
22652;SDS011;11493;43.344;26.226;2023-07-30T14:17:13;1.90;;;1.40;;
22652;SDS011;11493;43.344;26.226;2023-07-30T14:19:42;4.85;;;1.60;;
22652;SDS011;11493;43.344;26.226;2023-07-30T14:22:09;1.77;;;1.50;;
22652;SDS011;11493;43.344;26.226;2023-07-30T14:24:36;2.72;;;1.38;;
22652;SDS011;11493;43.344;26.226;2023-07-30T14:27:04;3.03;;;2.03;;
22652;SDS011;11493;43.344;26.226;2023-07-30T14:29:32;1.30;;;1.20;;
22652;SDS011;11493;43.344;26.226;2023-07-30T14:31:59;3.20;;;1.40;;
22652;SDS011;11493;43.344;26.226;2023-07-30T14:34:26;2.50;;;1.75;;
22652;SDS011;11493;43.344;26.226;2023-07-30T14:36:53;2.08;;;1.40;;
22652;SDS011;11493;43.344;26.226;2023-07-30T14:39:20;1.40;;;1.30;;
22652;SDS011;11493;43.344;26.226;2023-07-30T14:41:47;3.05;;;1.70;;
22652;SDS011;11493;43.344;26.226;2023-07-30T14:44:14;1.73;;;1.30;;
22652;SDS011;11493;43.344;26.226;2023-07-30T14:46:41;5.38;;;1.27;;
22652;SDS011;11493;43.344;26.226;2023-07-30T14:49:09;2.25;;;1.50;;